createdAt,value
2022-12-06T00:00:58.217Z,8.2
2022-12-06T00:01:58.212Z,8.18
2022-12-06T00:02:58.273Z,8.07
2022-12-06T00:03:58.157Z,8.09
2022-12-06T00:04:58.158Z,7.91
2022-12-06T00:05:58.162Z,7.49
2022-12-06T00:06:58.161Z,7.41
2022-12-06T00:07:58.242Z,7.28
2022-12-06T00:08:58.162Z,7.15
2022-12-06T00:09:58.422Z,7.18
2022-12-06T00:10:58.156Z,7.05
2022-12-06T00:11:58.160Z,7.49
2022-12-06T00:12:58.196Z,7.57
2022-12-06T00:13:58.156Z,7.81
2022-12-06T00:14:58.161Z,7.87
2022-12-06T00:15:58.213Z,7.92
2022-12-06T00:16:58.280Z,7.94
2022-12-06T00:17:58.197Z,8.06
2022-12-06T00:18:58.162Z,7.95
2022-12-06T00:19:58.410Z,8.05
2022-12-06T00:20:58.180Z,8.14
2022-12-06T00:21:58.184Z,8.13
2022-12-06T00:22:58.268Z,8.14
2022-12-06T00:23:58.225Z,8.27
2022-12-06T00:24:58.180Z,8.13
2022-12-06T00:25:58.175Z,8.22
2022-12-06T00:26:58.175Z,8.24
2022-12-06T00:27:58.185Z,8.22
2022-12-06T00:28:58.172Z,8.16
2022-12-06T00:29:58.400Z,8.11
2022-12-06T00:30:58.173Z,8.2
2022-12-06T00:31:58.257Z,8.3
2022-12-06T00:32:58.195Z,8.22
2022-12-06T00:33:58.182Z,8.17
2022-12-06T00:34:58.184Z,8.14
2022-12-06T00:35:58.178Z,8.02
2022-12-06T00:36:58.182Z,7.96
2022-12-06T00:37:58.195Z,8
2022-12-06T00:38:58.177Z,7.94
2022-12-06T00:39:58.444Z,7.88
2022-12-06T00:40:58.189Z,7.91
2022-12-06T00:41:58.177Z,7.91
2022-12-06T00:42:58.193Z,7.95
2022-12-06T00:43:58.183Z,7.96
2022-12-06T00:44:58.169Z,7.91
2022-12-06T00:45:58.387Z,8.05
2022-12-06T00:46:58.176Z,8.04
2022-12-06T00:47:58.184Z,8.06
2022-12-06T00:48:58.180Z,8.01
2022-12-06T00:49:58.385Z,7.96
2022-12-06T00:50:58.173Z,8.06
2022-12-06T00:51:58.185Z,8.04
2022-12-06T00:52:58.193Z,8.03
2022-12-06T00:53:58.173Z,7.86
2022-12-06T00:54:58.184Z,8.21
2022-12-06T00:55:58.181Z,7.35
2022-12-06T00:56:58.184Z,7.46
2022-12-06T00:57:58.189Z,7.69
2022-12-06T00:58:58.187Z,7.46
2022-12-06T00:59:58.424Z,7.21
2022-12-06T01:00:58.260Z,6.92
2022-12-06T01:01:58.179Z,7.12
2022-12-06T01:02:58.243Z,7.29
2022-12-06T01:03:58.191Z,7.37
2022-12-06T01:04:58.182Z,7.66
2022-12-06T01:05:58.177Z,7.76
2022-12-06T01:06:58.179Z,7.76
2022-12-06T01:07:58.292Z,7.86
2022-12-06T01:08:58.239Z,7.89
2022-12-06T01:09:58.528Z,7.92
2022-12-06T01:10:58.181Z,7.83
2022-12-06T01:11:58.180Z,7.69
2022-12-06T01:12:58.188Z,7.74
2022-12-06T01:13:58.173Z,7.74
2022-12-06T01:14:58.176Z,7.79
2022-12-06T01:15:58.201Z,7.86
2022-12-06T01:16:58.285Z,7.81
2022-12-06T01:17:58.173Z,7.6
2022-12-06T01:18:58.157Z,7.66
2022-12-06T01:19:58.574Z,7.62
2022-12-06T01:20:58.159Z,7.04
2022-12-06T01:21:58.166Z,6.8
2022-12-06T01:22:58.196Z,6.8
2022-12-06T01:23:58.174Z,6.93
2022-12-06T01:24:58.162Z,6.77
2022-12-06T01:25:58.162Z,6.78
2022-12-06T01:26:58.160Z,6.9
2022-12-06T01:27:58.172Z,6.87
2022-12-06T01:28:58.160Z,7.07
2022-12-06T01:29:58.394Z,6.93
2022-12-06T01:30:58.276Z,6.79
2022-12-06T01:31:58.246Z,6.53
2022-12-06T01:32:58.184Z,6.59
2022-12-06T01:33:58.162Z,6.39
2022-12-06T01:34:58.182Z,6.4
2022-12-06T01:35:58.161Z,6.47
2022-12-06T01:36:58.173Z,6.47
2022-12-06T01:38:03.014Z,6.36
2022-12-06T01:38:58.167Z,6.51
2022-12-06T01:39:58.475Z,6.47
2022-12-06T01:40:58.184Z,6.56
2022-12-06T01:41:58.177Z,6.43
2022-12-06T01:42:58.201Z,6.54
2022-12-06T01:43:58.182Z,6.65
2022-12-06T01:44:58.195Z,6.95
2022-12-06T01:45:58.235Z,6.75
2022-12-06T01:46:58.181Z,6.7
2022-12-06T01:47:58.188Z,6.63
2022-12-06T01:48:58.178Z,6.64
2022-12-06T01:49:58.519Z,6.71
2022-12-06T01:50:58.250Z,6.83
2022-12-06T01:51:58.195Z,6.83
2022-12-06T01:52:58.188Z,6.83
2022-12-06T01:53:58.170Z,6.32
2022-12-06T01:54:58.239Z,6.51
2022-12-06T01:55:58.173Z,6.58
2022-12-06T01:56:58.173Z,6.78
2022-12-06T01:57:58.193Z,6.85
2022-12-06T01:58:58.178Z,6.84
2022-12-06T01:59:58.569Z,6.89
2022-12-06T02:00:58.235Z,6.81
2022-12-06T02:01:58.366Z,6.77
2022-12-06T02:02:58.282Z,6.95
2022-12-06T02:03:58.178Z,6.76
2022-12-06T02:04:58.172Z,6.84
2022-12-06T02:05:58.174Z,6.92
2022-12-06T02:06:58.186Z,6.73
2022-12-06T02:07:58.254Z,6.87
2022-12-06T02:08:58.184Z,6.78
2022-12-06T02:09:58.607Z,6.95
2022-12-06T02:10:58.190Z,6.57
2022-12-06T02:11:58.168Z,6.78
2022-12-06T02:12:58.186Z,6.9
2022-12-06T02:13:58.181Z,6.89
2022-12-06T02:14:58.170Z,7
2022-12-06T02:15:58.195Z,7.06
2022-12-06T02:16:58.232Z,7.08
2022-12-06T02:17:58.247Z,7.1
2022-12-06T02:18:58.178Z,6.84
2022-12-06T02:19:58.423Z,6.9
2022-12-06T02:20:58.182Z,6.94
2022-12-06T02:21:58.182Z,7.05
2022-12-06T02:22:58.187Z,6.73
2022-12-06T02:23:58.171Z,6.64
2022-12-06T02:24:58.185Z,6.86
2022-12-06T02:25:58.178Z,6.94
2022-12-06T02:26:58.171Z,7.02
2022-12-06T02:27:58.188Z,7.02
2022-12-06T02:28:58.188Z,7.2
2022-12-06T02:29:58.519Z,7.23
2022-12-06T02:30:58.259Z,7.29
2022-12-06T02:31:58.162Z,6.92
2022-12-06T02:32:58.171Z,7.06
2022-12-06T02:33:58.161Z,7.04
2022-12-06T02:34:58.176Z,7.06
2022-12-06T02:35:58.155Z,7.12
2022-12-06T02:36:58.158Z,6.88
2022-12-06T02:37:58.185Z,6.94
2022-12-06T02:38:58.162Z,7.03
2022-12-06T02:39:58.497Z,7.01
2022-12-06T02:40:58.233Z,6.81
2022-12-06T02:41:58.162Z,6.75
2022-12-06T02:42:58.189Z,6.8
2022-12-06T02:43:58.158Z,6.93
2022-12-06T02:44:58.162Z,6.86
2022-12-06T02:45:58.219Z,6.86
2022-12-06T02:46:58.157Z,7.01
2022-12-06T02:47:58.188Z,7.13
2022-12-06T02:48:58.167Z,7.18
2022-12-06T02:49:58.599Z,7.23
2022-12-06T02:50:58.157Z,6.9
2022-12-06T02:51:58.159Z,7.01
2022-12-06T02:52:58.185Z,6.88
2022-12-06T02:53:58.177Z,6.91
2022-12-06T02:54:58.187Z,6.96
2022-12-06T02:55:58.164Z,6.98
2022-12-06T02:56:58.168Z,6.95
2022-12-06T02:57:58.196Z,7.04
2022-12-06T02:58:58.172Z,7.11
2022-12-06T02:59:58.360Z,7.11
2022-12-06T03:00:58.188Z,7.01
2022-12-06T03:01:58.286Z,6.8
2022-12-06T03:02:58.281Z,6.89
2022-12-06T03:03:58.233Z,6.87
2022-12-06T03:04:58.182Z,6.86
2022-12-06T03:05:58.181Z,6.78
2022-12-06T03:06:58.173Z,6.75
2022-12-06T03:07:58.243Z,6.57
2022-12-06T03:08:58.172Z,6.24
2022-12-06T03:09:58.683Z,6.6
2022-12-06T03:10:58.179Z,6.82
2022-12-06T03:11:58.261Z,6.83
2022-12-06T03:12:58.197Z,6.48
2022-12-06T03:13:58.181Z,6.66
2022-12-06T03:14:58.181Z,6.65
2022-12-06T03:15:58.230Z,6.84
2022-12-06T03:16:58.177Z,6.86
2022-12-06T03:17:58.180Z,6.76
2022-12-06T03:18:58.163Z,7
2022-12-06T03:19:58.371Z,7.01
2022-12-06T03:20:58.168Z,6.99
2022-12-06T03:21:58.173Z,6.93
2022-12-06T03:22:58.192Z,6.92
2022-12-06T03:23:58.169Z,6.83
2022-12-06T03:24:58.172Z,7.06
2022-12-06T03:25:58.190Z,7.01
2022-12-06T03:26:58.218Z,7.14
2022-12-06T03:27:58.174Z,7.25
2022-12-06T03:28:58.175Z,7.28
2022-12-06T03:29:58.433Z,7.13
2022-12-06T03:30:58.301Z,7.04
2022-12-06T03:31:58.181Z,7
2022-12-06T03:32:58.194Z,7
2022-12-06T03:33:58.222Z,7.09
2022-12-06T03:34:58.179Z,7.02
2022-12-06T03:35:58.182Z,6.96
2022-12-06T03:36:58.186Z,6.93
2022-12-06T03:37:58.207Z,6.92
2022-12-06T03:38:58.175Z,6.93
2022-12-06T03:39:58.454Z,6.99
2022-12-06T03:40:58.177Z,7.07
2022-12-06T03:41:58.172Z,6.98
2022-12-06T03:42:58.186Z,6.66
2022-12-06T03:43:58.181Z,6.67
2022-12-06T03:44:58.173Z,6.18
2022-12-06T03:45:58.258Z,6.31
2022-12-06T03:46:58.286Z,6.46
2022-12-06T03:47:58.195Z,6.07
2022-12-06T03:48:58.161Z,6.06
2022-12-06T03:49:58.668Z,6.28
2022-12-06T03:50:58.698Z,6.3
2022-12-06T03:51:58.157Z,6.07
2022-12-06T03:52:58.187Z,6.25
2022-12-06T03:53:58.169Z,6.31
2022-12-06T03:54:58.179Z,6.39
2022-12-06T03:55:58.165Z,6.45
2022-12-06T03:56:58.160Z,6.49
2022-12-06T03:57:58.172Z,6.68
2022-12-06T03:58:58.163Z,6.83
2022-12-06T03:59:58.495Z,6.72
2022-12-06T04:00:58.173Z,6.21
2022-12-06T04:01:58.270Z,6.17
2022-12-06T04:02:58.185Z,6.34
2022-12-06T04:03:58.199Z,6.58
2022-12-06T04:04:58.155Z,6.67
2022-12-06T04:05:58.162Z,6.91
2022-12-06T04:06:58.161Z,6.91
2022-12-06T04:07:58.258Z,6.7
2022-12-06T04:08:58.159Z,6.68
2022-12-06T04:09:58.430Z,6.72
2022-12-06T04:10:58.171Z,6.69
2022-12-06T04:11:58.161Z,6.72
2022-12-06T04:12:58.234Z,6.9
2022-12-06T04:13:58.186Z,7.04
2022-12-06T04:14:58.179Z,7.12
2022-12-06T04:15:58.234Z,7.15
2022-12-06T04:16:58.179Z,7.13
2022-12-06T04:17:58.193Z,7.12
2022-12-06T04:18:58.164Z,7.1
2022-12-06T04:19:58.176Z,7.04
2022-12-06T04:20:58.171Z,7.19
2022-12-06T04:21:58.179Z,7.29
2022-12-06T04:22:58.188Z,7.15
2022-12-06T04:23:58.171Z,7.15
2022-12-06T04:24:58.177Z,6.82
2022-12-06T04:25:58.176Z,6.79
2022-12-06T04:26:58.170Z,6.99
2022-12-06T04:27:58.191Z,6.96
2022-12-06T04:28:58.196Z,7.07
2022-12-06T04:29:58.395Z,7.13
2022-12-06T04:30:58.278Z,7.25
2022-12-06T04:31:58.302Z,7.28
2022-12-06T04:32:58.186Z,7.2
2022-12-06T04:33:58.180Z,7.17
2022-12-06T04:34:58.181Z,7.16
2022-12-06T04:35:58.273Z,7.17
2022-12-06T04:36:58.178Z,7.18
2022-12-06T04:37:58.189Z,7.08
2022-12-06T04:38:58.175Z,7.2
2022-12-06T04:39:58.645Z,7.25
2022-12-06T04:40:58.174Z,7.27
2022-12-06T04:41:58.180Z,7.22
2022-12-06T04:42:58.186Z,6.96
2022-12-06T04:43:58.171Z,7.05
2022-12-06T04:44:58.180Z,7.23
2022-12-06T04:45:58.189Z,7.27
2022-12-06T04:46:58.243Z,7.2
2022-12-06T04:47:58.211Z,7.16
2022-12-06T04:48:58.179Z,7.12
2022-12-06T04:49:58.566Z,7.04
2022-12-06T04:50:58.188Z,7.25
2022-12-06T04:51:58.183Z,7.33
2022-12-06T04:52:58.196Z,7.35
2022-12-06T04:53:58.179Z,7.4
2022-12-06T04:54:58.182Z,7.27
2022-12-06T04:55:58.173Z,7.33
2022-12-06T04:56:58.176Z,7.4
2022-12-06T04:57:58.201Z,7.46
2022-12-06T04:58:58.181Z,7.12
2022-12-06T04:59:58.543Z,6.98
2022-12-06T05:00:58.269Z,7.18
2022-12-06T05:01:58.175Z,7.12
2022-12-06T05:02:58.192Z,6.81
2022-12-06T05:03:58.188Z,6.61
2022-12-06T05:04:58.160Z,6.78
2022-12-06T05:05:58.158Z,6.95
2022-12-06T05:06:58.161Z,6.91
2022-12-06T05:07:58.216Z,6.36
2022-12-06T05:08:58.184Z,6.33
2022-12-06T05:09:58.541Z,6.34
2022-12-06T05:10:58.161Z,6.55
2022-12-06T05:11:58.157Z,6.45
2022-12-06T05:12:58.170Z,6.23
2022-12-06T05:13:58.168Z,6.46
2022-12-06T05:14:58.166Z,6.3
2022-12-06T05:15:58.228Z,6.25
2022-12-06T05:16:58.167Z,6.39
2022-12-06T05:17:58.217Z,6.28
2022-12-06T05:18:58.158Z,6.43
2022-12-06T05:19:58.376Z,6.46
2022-12-06T05:20:58.173Z,6.25
2022-12-06T05:21:58.199Z,6.16
2022-12-06T05:22:58.173Z,6.33
2022-12-06T05:23:58.160Z,6.25
2022-12-06T05:24:58.161Z,5.94
2022-12-06T05:25:58.186Z,5.88
2022-12-06T05:26:58.173Z,5.97
2022-12-06T05:27:58.171Z,5.86
2022-12-06T05:28:58.173Z,5.77
2022-12-06T05:29:58.446Z,5.68
2022-12-06T05:30:58.176Z,5.46
2022-12-06T05:31:58.228Z,5.77
2022-12-06T05:32:58.182Z,5.57
2022-12-06T05:33:58.181Z,5.65
2022-12-06T05:34:58.175Z,5.6
2022-12-06T05:35:58.181Z,5.53
2022-12-06T05:36:58.177Z,5.53
2022-12-06T05:37:58.179Z,5.72
2022-12-06T05:38:58.173Z,5.81
2022-12-06T05:39:58.386Z,5.75
2022-12-06T05:40:58.161Z,5.58
2022-12-06T05:41:58.172Z,5.48
2022-12-06T05:42:58.183Z,5.67
2022-12-06T05:43:58.187Z,6.08
2022-12-06T05:44:58.172Z,5.87
2022-12-06T05:45:58.248Z,6.05
2022-12-06T05:46:58.168Z,5.91
2022-12-06T05:47:58.179Z,5.95
2022-12-06T05:48:58.184Z,5.92
2022-12-06T05:49:58.458Z,5.92
2022-12-06T05:50:58.159Z,5.86
2022-12-06T05:52:03.618Z,6.11
2022-12-06T05:52:58.189Z,5.98
2022-12-06T05:53:58.178Z,5.86
2022-12-06T05:54:58.174Z,5.97
2022-12-06T05:55:58.169Z,6.13
2022-12-06T05:56:58.174Z,5.93
2022-12-06T05:57:58.196Z,6.04
2022-12-06T05:58:58.176Z,5.94
2022-12-06T05:59:58.498Z,6.05
2022-12-06T06:00:58.168Z,5.97
2022-12-06T06:01:58.385Z,5.68
2022-12-06T06:02:58.278Z,5.75
2022-12-06T06:03:58.183Z,5.79
2022-12-06T06:04:58.177Z,5.94
2022-12-06T06:05:58.184Z,5.98
2022-12-06T06:06:58.185Z,6.04
2022-12-06T06:07:58.266Z,6.1
2022-12-06T06:08:58.185Z,5.81
2022-12-06T06:09:58.406Z,5.78
2022-12-06T06:10:58.173Z,5.69
2022-12-06T06:11:58.169Z,5.62
2022-12-06T06:12:58.190Z,5.61
2022-12-06T06:13:58.178Z,5.61
2022-12-06T06:14:58.180Z,5.85
2022-12-06T06:15:58.196Z,5.71
2022-12-06T06:16:58.254Z,5.83
2022-12-06T06:17:58.188Z,5.8
2022-12-06T06:18:58.181Z,5.77
2022-12-06T06:19:58.173Z,5.77
2022-12-06T06:20:58.173Z,5.74
2022-12-06T06:21:58.159Z,5.72
2022-12-06T06:22:58.196Z,5.67
2022-12-06T06:23:58.178Z,5.67
2022-12-06T06:24:58.167Z,5.72
2022-12-06T06:25:58.159Z,5.87
2022-12-06T06:26:58.188Z,5.9
2022-12-06T06:27:58.186Z,5.9
2022-12-06T06:28:58.161Z,5.96
2022-12-06T06:29:58.494Z,5.94
2022-12-06T06:30:58.189Z,5.85
2022-12-06T06:31:58.210Z,5.79
2022-12-06T06:32:58.184Z,5.88
2022-12-06T06:33:58.156Z,5.72
2022-12-06T06:34:58.173Z,5.81
2022-12-06T06:35:58.161Z,5.73
2022-12-06T06:36:58.156Z,5.83
2022-12-06T06:37:58.187Z,5.93
2022-12-06T06:38:58.168Z,6.04
2022-12-06T06:39:58.606Z,5.93
2022-12-06T06:40:58.155Z,5.85
2022-12-06T06:41:58.170Z,5.97
2022-12-06T06:42:58.186Z,5.99
2022-12-06T06:43:58.156Z,6.22
2022-12-06T06:44:58.163Z,6.1
2022-12-06T06:45:58.259Z,6.21
2022-12-06T06:46:58.169Z,6.02
2022-12-06T06:47:58.180Z,6.06
2022-12-06T06:48:58.181Z,6.17
2022-12-06T06:49:58.389Z,6.2
2022-12-06T06:50:58.192Z,6.26
2022-12-06T06:51:58.167Z,6.28
2022-12-06T06:52:58.187Z,6.33
2022-12-06T06:53:58.170Z,6.21
2022-12-06T06:54:58.173Z,6.26
2022-12-06T06:55:58.173Z,6.39
2022-12-06T06:56:58.184Z,6.32
2022-12-06T06:57:58.196Z,6.48
2022-12-06T06:58:58.185Z,6.39
2022-12-06T06:59:58.419Z,6.41
2022-12-06T07:00:58.293Z,6.52
2022-12-06T07:01:58.266Z,6.49
2022-12-06T07:02:58.262Z,6.57
2022-12-06T07:03:58.190Z,6.67
2022-12-06T07:04:58.208Z,6.68
2022-12-06T07:05:58.172Z,6.68
2022-12-06T07:06:58.166Z,6.68
2022-12-06T07:07:58.285Z,6.56
2022-12-06T07:08:58.171Z,6.69
2022-12-06T07:09:58.432Z,6.75
2022-12-06T07:10:58.183Z,6.59
2022-12-06T07:11:58.167Z,6.59
2022-12-06T07:12:58.195Z,6.41
2022-12-06T07:13:58.178Z,6.58
2022-12-06T07:14:58.174Z,6.67
2022-12-06T07:15:58.184Z,6.75
2022-12-06T07:16:58.201Z,6.72
2022-12-06T07:17:58.196Z,6.69
2022-12-06T07:18:58.184Z,6.66
2022-12-06T07:19:58.403Z,6.68
2022-12-06T07:20:58.175Z,6.57
2022-12-06T07:21:58.171Z,6.7
2022-12-06T07:22:58.197Z,6.53
2022-12-06T07:23:58.190Z,6.36
2022-12-06T07:24:58.187Z,6.5
2022-12-06T07:25:58.189Z,6.69
2022-12-06T07:26:58.175Z,6.75
2022-12-06T07:27:58.204Z,6.72
2022-12-06T07:28:58.188Z,6.77
2022-12-06T07:29:58.421Z,6.71
2022-12-06T07:30:58.274Z,6.64
2022-12-06T07:31:58.174Z,6.54
2022-12-06T07:32:58.185Z,6.35
2022-12-06T07:33:58.176Z,6.47
2022-12-06T07:34:58.171Z,6.69
2022-12-06T07:36:12.442Z,6.76
2022-12-06T07:36:58.185Z,6.85
2022-12-06T07:37:58.191Z,6.78
2022-12-06T07:38:58.177Z,6.84
2022-12-06T07:39:58.496Z,6.8
2022-12-06T07:41:04.839Z,6.81
2022-12-06T07:41:58.160Z,6.87
2022-12-06T07:42:58.245Z,6.91
2022-12-06T07:43:58.160Z,6.85
2022-12-06T07:45:01.615Z,6.88
2022-12-06T07:45:58.240Z,6.86
2022-12-06T07:46:58.153Z,6.93
2022-12-06T07:47:58.187Z,6.93
2022-12-06T07:48:58.165Z,6.83
2022-12-06T07:49:58.585Z,6.86
2022-12-06T07:50:58.168Z,6.86
2022-12-06T07:51:58.157Z,6.77
2022-12-06T07:52:58.193Z,6.76
2022-12-06T07:53:58.160Z,6.84
2022-12-06T07:54:58.184Z,6.94
2022-12-06T07:55:58.161Z,6.94
2022-12-06T07:56:58.155Z,6.84
2022-12-06T07:57:58.172Z,6.81
2022-12-06T07:58:58.164Z,6.97
2022-12-06T07:59:58.496Z,6.82
2022-12-06T08:00:58.172Z,6.85
2022-12-06T08:01:58.208Z,6.95
2022-12-06T08:02:58.196Z,7
2022-12-06T08:03:58.209Z,6.8
2022-12-06T08:04:58.197Z,6.93
2022-12-06T08:05:58.183Z,7.16
2022-12-06T08:06:58.172Z,6.91
2022-12-06T08:07:58.297Z,7
2022-12-06T08:08:58.193Z,6.81
2022-12-06T08:09:58.612Z,6.95
2022-12-06T08:10:58.168Z,7.01
2022-12-06T08:11:58.183Z,6.81
2022-12-06T08:12:58.200Z,6.83
2022-12-06T08:13:58.198Z,6.75
2022-12-06T08:14:59.773Z,6.71
2022-12-06T08:15:58.228Z,6.9
2022-12-06T08:16:58.215Z,6.88
2022-12-06T08:17:58.190Z,6.91
2022-12-06T08:18:58.187Z,7.06
2022-12-06T08:19:58.415Z,6.95
2022-12-06T08:20:58.178Z,6.94
2022-12-06T08:21:58.161Z,6.89
2022-12-06T08:22:58.195Z,6.88
2022-12-06T08:23:58.173Z,6.81
2022-12-06T08:24:58.172Z,6.86
2022-12-06T08:25:58.186Z,6.72
2022-12-06T08:26:58.175Z,6.76
2022-12-06T08:27:58.205Z,6.78
2022-12-06T08:28:58.175Z,6.76
2022-12-06T08:29:58.422Z,6.8
2022-12-06T08:31:02.872Z,6.66
2022-12-06T08:31:58.190Z,6.62
2022-12-06T08:32:58.206Z,6.61
2022-12-06T08:33:58.174Z,6.43
2022-12-06T08:34:58.178Z,6.41
2022-12-06T08:35:58.185Z,6.56
2022-12-06T08:37:03.167Z,6.36
2022-12-06T08:37:58.188Z,6.41
2022-12-06T08:38:58.193Z,6.48
2022-12-06T08:39:58.589Z,6.42
2022-12-06T08:40:58.182Z,6.42
2022-12-06T08:41:58.250Z,6.32
2022-12-06T08:42:58.185Z,6.37
2022-12-06T08:43:58.172Z,6.2
2022-12-06T08:44:58.176Z,6.27
2022-12-06T08:45:58.268Z,6.18
2022-12-06T08:46:58.175Z,6.22
2022-12-06T08:47:58.183Z,6.22
2022-12-06T08:48:58.177Z,6.43
2022-12-06T08:49:58.421Z,6.44
2022-12-06T08:50:58.161Z,6.35
2022-12-06T08:51:58.176Z,6.34
2022-12-06T08:52:58.178Z,6.38
2022-12-06T08:53:58.156Z,6.4
2022-12-06T08:54:58.163Z,6.41
2022-12-06T08:56:02.587Z,6.5
2022-12-06T08:56:58.173Z,6.23
2022-12-06T08:57:58.188Z,6.32
2022-12-06T08:58:58.160Z,6.4
2022-12-06T08:59:58.419Z,6.3
2022-12-06T09:00:58.206Z,6.45
2022-12-06T09:01:58.359Z,6.37
2022-12-06T09:02:58.211Z,6.37
2022-12-06T09:03:58.358Z,6.56
2022-12-06T09:04:58.248Z,6.33
2022-12-06T09:05:58.161Z,6.5
2022-12-06T09:06:58.159Z,6.49
2022-12-06T09:07:58.232Z,6.56
2022-12-06T09:08:58.161Z,6.57
2022-12-06T09:09:58.356Z,6.6
2022-12-06T09:10:58.158Z,6.51
2022-12-06T09:11:58.171Z,6.12
2022-12-06T09:12:58.187Z,6.17
2022-12-06T09:13:58.164Z,5.95
2022-12-06T09:14:58.158Z,6.02
2022-12-06T09:15:58.254Z,5.97
2022-12-06T09:16:58.236Z,6.25
2022-12-06T09:17:58.185Z,6.12
2022-12-06T09:18:58.166Z,6.13
2022-12-06T09:20:03.765Z,6.02
2022-12-06T09:20:58.166Z,6.2
2022-12-06T09:21:58.174Z,6.04
2022-12-06T09:22:58.192Z,6.28
2022-12-06T09:23:58.175Z,6.3
2022-12-06T09:24:58.179Z,6.15
2022-12-06T09:25:58.182Z,6.26
2022-12-06T09:26:58.169Z,5.95
2022-12-06T09:27:58.187Z,6.19
2022-12-06T09:28:58.173Z,6.19
2022-12-06T09:29:58.431Z,6.12
2022-12-06T09:30:58.254Z,6.23
2022-12-06T09:31:58.182Z,6.11
2022-12-06T09:32:58.188Z,6.14
2022-12-06T09:33:58.171Z,6.17
2022-12-06T09:34:58.175Z,5.89
2022-12-06T09:35:58.187Z,6.05
2022-12-06T09:36:58.173Z,6.07
2022-12-06T09:37:58.186Z,6.12
2022-12-06T09:38:58.208Z,5.96
2022-12-06T09:39:58.312Z,6.02
2022-12-06T09:40:58.179Z,6.14
2022-12-06T09:41:58.181Z,6.16
2022-12-06T09:42:58.226Z,6.2
2022-12-06T09:43:58.185Z,6.05
2022-12-06T09:44:58.178Z,5.96
2022-12-06T09:45:58.232Z,6.21
2022-12-06T09:46:58.208Z,6.23
2022-12-06T09:47:58.194Z,6.28
2022-12-06T09:48:58.184Z,6.17
2022-12-06T09:49:58.539Z,6.03
2022-12-06T09:50:58.182Z,6.24
2022-12-06T09:51:58.171Z,6.48
2022-12-06T09:52:58.195Z,6.57
2022-12-06T09:53:58.165Z,6.27
2022-12-06T09:55:00.529Z,6.53
2022-12-06T09:55:58.200Z,6.76
2022-12-06T09:56:58.177Z,6.85
2022-12-06T09:57:58.187Z,6.47
2022-12-06T09:58:58.180Z,6.38
2022-12-06T09:59:58.527Z,6.5
2022-12-06T10:00:58.189Z,6.68
2022-12-06T10:01:58.236Z,6.75
2022-12-06T10:02:58.285Z,6.73
2022-12-06T10:03:58.179Z,6.88
2022-12-06T10:04:58.174Z,6.93
2022-12-06T10:05:58.194Z,6.94
2022-12-06T10:06:58.165Z,6.89
2022-12-06T10:07:58.267Z,6.97
2022-12-06T10:08:58.311Z,6.79
2022-12-06T10:09:58.396Z,6.49
2022-12-06T10:10:58.156Z,6.6
2022-12-06T10:11:58.166Z,6.64
2022-12-06T10:12:58.186Z,6.48
2022-12-06T10:13:58.156Z,6.45
2022-12-06T10:14:58.167Z,6.55
2022-12-06T10:15:58.237Z,6.57
2022-12-06T10:16:58.216Z,6.59
2022-12-06T10:17:58.202Z,6.71
2022-12-06T10:18:58.159Z,6.54
2022-12-06T10:19:58.404Z,6.67
2022-12-06T10:20:58.163Z,6.79
2022-12-06T10:21:58.164Z,6.67
2022-12-06T10:22:58.183Z,6.81
2022-12-06T10:24:01.970Z,6.63
2022-12-06T10:24:58.158Z,6.61
2022-12-06T10:25:58.163Z,6.73
2022-12-06T10:26:58.161Z,6.87
2022-12-06T10:27:58.177Z,6.83
2022-12-06T10:28:58.168Z,6.91
2022-12-06T10:29:58.556Z,6.96
2022-12-06T10:30:58.260Z,7.07
2022-12-06T10:31:58.286Z,6.98
2022-12-06T10:32:58.191Z,7.04
2022-12-06T10:33:58.181Z,7.1
2022-12-06T10:34:58.190Z,6.94
2022-12-06T10:35:58.174Z,7.04
2022-12-06T10:36:58.174Z,7.03
2022-12-06T10:37:58.182Z,7.04
2022-12-06T10:38:58.176Z,7.11
2022-12-06T10:39:58.176Z,7.22
2022-12-06T10:40:58.172Z,7.17
2022-12-06T10:41:58.170Z,7.13
2022-12-06T10:42:58.201Z,7.19
2022-12-06T10:43:58.184Z,7.2
2022-12-06T10:44:58.177Z,7.13
2022-12-06T10:45:58.191Z,6.66
2022-12-06T10:46:58.349Z,6.56
2022-12-06T10:47:58.209Z,6.55
2022-12-06T10:48:58.174Z,6.6
2022-12-06T10:49:58.393Z,6.8
2022-12-06T10:50:58.178Z,6.8
2022-12-06T10:51:58.191Z,6.82
2022-12-06T10:53:01.867Z,6.69
2022-12-06T10:53:58.178Z,6.73
2022-12-06T10:54:58.173Z,6.55
2022-12-06T10:55:58.171Z,6.58
2022-12-06T10:56:58.182Z,6.66
2022-12-06T10:57:58.198Z,6.48
2022-12-06T10:58:58.202Z,6.21
2022-12-06T11:00:01.585Z,6.37
2022-12-06T11:00:58.277Z,6.44
2022-12-06T11:01:58.262Z,6.27
2022-12-06T11:02:58.192Z,6.32
2022-12-06T11:03:58.174Z,6.39
2022-12-06T11:04:58.175Z,6.5
2022-12-06T11:05:58.186Z,6.27
2022-12-06T11:06:58.241Z,6.13
2022-12-06T11:07:58.239Z,6.12
2022-12-06T11:08:58.175Z,6.18
2022-12-06T11:09:58.461Z,6.32
2022-12-06T11:10:58.172Z,6.1
2022-12-06T11:11:58.172Z,6.13
2022-12-06T11:12:58.187Z,6.15
2022-12-06T11:13:58.177Z,6.13
2022-12-06T11:14:58.178Z,6.33
2022-12-06T11:15:58.259Z,6.46
2022-12-06T11:16:58.173Z,6.34
2022-12-06T11:18:02.427Z,6.45
2022-12-06T11:18:58.174Z,6.57
2022-12-06T11:19:58.379Z,6.51
2022-12-06T11:20:58.160Z,6.25
2022-12-06T11:21:58.161Z,6.5
2022-12-06T11:22:58.186Z,6.44
2022-12-06T11:23:58.166Z,6.43
2022-12-06T11:24:58.167Z,6.55
2022-12-06T11:25:58.156Z,6.6
2022-12-06T11:26:58.156Z,6.5
2022-12-06T11:27:58.193Z,6.44
2022-12-06T11:28:58.165Z,6.16
2022-12-06T11:29:58.304Z,6.16
2022-12-06T11:30:58.459Z,6.25
2022-12-06T11:31:58.193Z,6.23
2022-12-06T11:32:58.214Z,6.29
2022-12-06T11:33:58.160Z,6.04
2022-12-06T11:34:58.157Z,6.02
2022-12-06T11:35:58.158Z,6.11
2022-12-06T11:37:00.076Z,5.85
2022-12-06T11:37:58.186Z,6.03
2022-12-06T11:38:58.169Z,5.82
2022-12-06T11:39:58.369Z,5.97
2022-12-06T11:40:58.157Z,6.02
2022-12-06T11:41:58.176Z,6.14
2022-12-06T11:42:58.176Z,6.15
2022-12-06T11:43:58.185Z,6.05
2022-12-06T11:44:58.176Z,6.14
2022-12-06T11:45:58.202Z,6.07
2022-12-06T11:46:58.222Z,5.96
2022-12-06T11:47:58.186Z,6.13
2022-12-06T11:48:58.199Z,5.9
2022-12-06T11:50:02.745Z,6.22
2022-12-06T11:50:58.181Z,6.27
2022-12-06T11:51:58.173Z,5.96
2022-12-06T11:52:58.186Z,6
2022-12-06T11:53:58.185Z,5.83
2022-12-06T11:54:58.581Z,5.83
2022-12-06T11:55:58.180Z,5.98
2022-12-06T11:56:58.171Z,6.24
2022-12-06T11:57:58.187Z,6.11
2022-12-06T11:58:58.170Z,6.25
2022-12-06T11:59:58.336Z,6.34
2022-12-06T12:00:58.195Z,6.23
2022-12-06T12:01:58.280Z,6.37
2022-12-06T12:02:58.278Z,6.38
2022-12-06T12:03:58.175Z,6.44
2022-12-06T12:04:58.603Z,6.63
2022-12-06T12:05:58.216Z,6.65
2022-12-06T12:06:58.172Z,6.72
2022-12-06T12:07:58.212Z,6.87
2022-12-06T12:08:58.176Z,6.86
2022-12-06T12:09:58.171Z,6.77
2022-12-06T12:10:58.173Z,6.41
2022-12-06T12:11:58.173Z,6.57
2022-12-06T12:12:58.187Z,6.72
2022-12-06T12:13:58.196Z,6.73
2022-12-06T12:14:58.176Z,6.6
2022-12-06T12:15:58.190Z,6.61
2022-12-06T12:16:58.299Z,6.61
2022-12-06T12:17:58.187Z,6.27
2022-12-06T12:18:58.183Z,6.26
2022-12-06T12:19:58.175Z,6.3
2022-12-06T12:20:58.178Z,6.36
2022-12-06T12:21:58.173Z,6.46
2022-12-06T12:22:58.189Z,6.24
2022-12-06T12:23:58.170Z,6.32
2022-12-06T12:25:19.745Z,6.26
2022-12-06T12:25:58.178Z,6.36
2022-12-06T12:26:58.174Z,6.5
2022-12-06T12:27:58.192Z,6.55
2022-12-06T12:28:58.159Z,6.5
2022-12-06T12:29:58.161Z,6.46
2022-12-06T12:30:58.183Z,6.48
2022-12-06T12:31:58.258Z,6.44
2022-12-06T12:32:58.172Z,6.35
2022-12-06T12:33:58.157Z,6.31
2022-12-06T12:34:58.325Z,6.35
2022-12-06T12:35:58.202Z,6.49
2022-12-06T12:36:58.160Z,6.61
2022-12-06T12:37:58.184Z,6.7
2022-12-06T12:38:58.275Z,6.46
2022-12-06T12:39:58.156Z,6.42
2022-12-06T12:40:58.175Z,6.48
2022-12-06T12:41:58.171Z,6.48
2022-12-06T12:42:58.185Z,6.38
2022-12-06T12:44:20.811Z,6.47
2022-12-06T12:44:58.537Z,6.52
2022-12-06T12:46:02.415Z,6.35
2022-12-06T12:46:58.155Z,6.35
2022-12-06T12:47:58.173Z,6.19
2022-12-06T12:48:58.163Z,6.19
2022-12-06T12:49:58.180Z,6.14
2022-12-06T12:50:58.161Z,6.16
2022-12-06T12:51:58.166Z,6.13
2022-12-06T12:52:58.191Z,6.19
2022-12-06T12:53:58.170Z,6.23
2022-12-06T12:54:58.477Z,6.39
2022-12-06T12:55:58.176Z,6.16
2022-12-06T12:56:58.174Z,6.15
2022-12-06T12:57:58.184Z,6.07
2022-12-06T12:58:58.178Z,6.13
2022-12-06T12:59:58.175Z,6.13
2022-12-06T13:00:58.259Z,6.21
2022-12-06T13:01:58.231Z,6.21
2022-12-06T13:02:58.201Z,6.29
2022-12-06T13:03:58.186Z,6.38
2022-12-06T13:05:17.168Z,6.36
2022-12-06T13:05:58.186Z,6.28
2022-12-06T13:06:58.173Z,6.19
2022-12-06T13:07:58.221Z,5.93
2022-12-06T13:08:58.177Z,5.83
2022-12-06T13:09:58.176Z,5.85
2022-12-06T13:10:59.356Z,5.63
2022-12-06T13:11:58.178Z,5.75
2022-12-06T13:12:58.187Z,5.89
2022-12-06T13:13:58.172Z,6.15
2022-12-06T13:14:58.381Z,6.1
2022-12-06T13:15:58.189Z,6.1
2022-12-06T13:16:58.287Z,6.02
2022-12-06T13:17:59.872Z,5.95
2022-12-06T13:18:58.178Z,5.97
2022-12-06T13:19:58.172Z,6.11
2022-12-06T13:20:58.182Z,6.07
2022-12-06T13:21:58.164Z,6.11